< Typhoon 197912 1979 Season Typhoon 197914 >
Typhoon 197913 (LOLA)
General InformationTrack Information on Google MapsDetailed Wind InformationList of All Images || Disaster Info.ResourceGoogle EarthGE AnimationAtom FeedGeoJSON
Detalied Best Track (Time Zone = UTC)
Year Month Day Hour Lat. Long. Pressure (hPa) Wind (kt) Class Image Chart
1979 9 1 00 19.0 149.5 1008 0 2 Image Chart
1979 9 1 06 19.6 150.0 1006 0 2 Image Chart
1979 9 1 12 20.3 150.5 1008 0 2 Image Chart
1979 9 1 18 21.0 151.0 1008 0 2 Image Chart
1979 9 2 00 21.5 151.4 1008 0 2 Image Chart
1979 9 2 06 21.9 151.7 1008 0 2 Image Chart
1979 9 2 12 22.3 151.8 1006 0 2 Image Chart
1979 9 2 18 22.7 151.9 1006 0 2 Image Chart
1979 9 3 00 23.0 152.0 1006 0 2 Image Chart
1979 9 3 06 23.2 151.2 1006 0 2 Image Chart
1979 9 3 12 23.3 150.5 1002 0 2 Image Chart
1979 9 3 18 23.4 150.0 1000 0 2 Image Chart
1979 9 4 00 23.6 149.2 990 40 3 Image Chart
1979 9 4 06 24.0 148.5 980 50 4 Image Chart
1979 9 4 12 24.4 147.7 975 65 5 Image Chart
1979 9 4 18 24.6 147.0 970 70 5 Image Chart
1979 9 5 00 25.3 146.8 965 70 5 Image Chart
1979 9 5 06 25.5 146.7 960 75 5 Image Chart
1979 9 5 12 26.3 146.5 960 70 5 Image Chart
1979 9 5 18 26.8 146.5 960 75 5 Image Chart
1979 9 6 00 27.3 146.5 950 80 5 Image Chart
1979 9 6 06 27.8 146.5 955 80 5 Image Chart
1979 9 6 12 28.5 146.4 965 80 5 Image Chart
1979 9 6 18 29.2 146.2 975 75 5 Image Chart
1979 9 7 00 30.0 146.2 980 65 5 Image Chart
1979 9 7 06 30.8 146.5 980 50 4 Image Chart
1979 9 7 12 31.9 147.2 990 50 4 Image Chart
1979 9 7 18 33.1 147.8 990 45 3 Image Chart
1979 9 8 00 34.1 148.3 990 40 3 Image Chart
1979 9 8 06 35.3 150.0 990 40 3 Image Chart
1979 9 8 12 36.3 152.0 992 40 3 Image Chart
1979 9 8 18 37.0 154.3 994 40 3 Image Chart
1979 9 9 00 38.0 157.0 996 0 6 Image Chart
1979 9 9 06 39.7 160.0 996 0 6 Image Chart
1979 9 9 12 42.0 164.0 998 0 6 Image Chart
1979 9 9 18 41.0 169.0 998 0 6 Image Chart
1979 9 10 00 40.2 173.7 998 0 6 Image Chart
1979 9 10 06 40.0 178.0 994 0 6 Image Chart
Japan Meteorological Agency Best Track Data | Correction Date : 1992-10-21
< Typhoon 197912 1979 Season Typhoon 197914 >

Help